sensor_id;sensor_type;location;lat;lon;timestamp;pressure;altitude;pressure_sealevel;temperature;humidity
79242;BME280;68670;48.720;9.118;2023-08-31T00:00:10;96381.16;;;12.90;96.04
79242;BME280;68670;48.720;9.118;2023-08-31T00:02:39;96381.13;;;12.79;96.49
79242;BME280;68670;48.720;9.118;2023-08-31T00:05:06;96377.25;;;12.75;97.67
79242;BME280;68670;48.720;9.118;2023-08-31T00:07:33;96375.63;;;12.79;96.38
79242;BME280;68670;48.720;9.118;2023-08-31T00:10:01;96371.78;;;12.81;96.16
79242;BME280;68670;48.720;9.118;2023-08-31T00:12:36;96371.53;;;12.87;95.42
79242;BME280;68670;48.720;9.118;2023-08-31T00:15:07;96375.63;;;12.79;95.05
79242;BME280;68670;48.720;9.118;2023-08-31T00:17:34;96380.53;;;12.72;94.73
79242;BME280;68670;48.720;9.118;2023-08-31T00:20:03;96381.94;;;12.80;94.22
79242;BME280;68670;48.720;9.118;2023-08-31T00:22:31;96381.38;;;12.73;94.28
79242;BME280;68670;48.720;9.118;2023-08-31T00:24:59;96381.06;;;12.69;94.06
79242;BME280;68670;48.720;9.118;2023-08-31T00:27:24;96388.75;;;12.67;93.22
79242;BME280;68670;48.720;9.118;2023-08-31T00:29:51;96390.94;;;12.60;94.30
79242;BME280;68670;48.720;9.118;2023-08-31T00:32:19;96393.16;;;12.63;93.20
79242;BME280;68670;48.720;9.118;2023-08-31T00:34:50;96397.84;;;12.63;92.97
79242;BME280;68670;48.720;9.118;2023-08-31T00:37:18;96392.03;;;12.59;93.28
79242;BME280;68670;48.720;9.118;2023-08-31T00:39:46;96394.78;;;12.59;94.34
79242;BME280;68670;48.720;9.118;2023-08-31T00:42:23;96396.94;;;12.52;95.45
79242;BME280;68670;48.720;9.118;2023-08-31T00:44:51;96395.28;;;12.51;95.39
79242;BME280;68670;48.720;9.118;2023-08-31T00:47:19;96399.13;;;12.50;95.56
79242;BME280;68670;48.720;9.118;2023-08-31T00:49:47;96401.88;;;12.50;95.64
79242;BME280;68670;48.720;9.118;2023-08-31T00:52:19;96401.28;;;12.43;95.86
79242;BME280;68670;48.720;9.118;2023-08-31T00:54:47;96395.78;;;12.38;95.95
79242;BME280;68670;48.720;9.118;2023-08-31T00:57:14;96394.41;;;12.40;95.32
79242;BME280;68670;48.720;9.118;2023-08-31T00:59:39;96393.03;;;12.33;95.63
79242;BME280;68670;48.720;9.118;2023-08-31T01:11:41;96390.38;;;12.01;97.96
79242;BME280;68670;48.720;9.118;2023-08-31T01:14:47;96387.56;;;11.96;98.67
79242;BME280;68670;48.720;9.118;2023-08-31T01:17:17;96396.06;;;11.94;97.81
79242;BME280;68670;48.720;9.118;2023-08-31T01:20:06;96389.53;;;12.00;97.06
79242;BME280;68670;48.720;9.118;2023-08-31T01:22:46;96395.53;;;11.97;97.16
79242;BME280;68670;48.720;9.118;2023-08-31T01:25:18;96406.53;;;12.02;95.84
79242;BME280;68670;48.720;9.118;2023-08-31T01:27:44;96413.66;;;11.98;96.04
79242;BME280;68670;48.720;9.118;2023-08-31T01:30:09;96405.09;;;11.90;96.17
79242;BME280;68670;48.720;9.118;2023-08-31T01:32:36;96406.44;;;11.87;96.41
79242;BME280;68670;48.720;9.118;2023-08-31T01:35:14;96413.59;;;11.88;96.12
79242;BME280;68670;48.720;9.118;2023-08-31T01:37:47;96416.38;;;11.93;95.76
79242;BME280;68670;48.720;9.118;2023-08-31T01:40:29;96409.75;;;11.89;95.98
79242;BME280;68670;48.720;9.118;2023-08-31T01:43:01;96414.00;;;11.75;97.23
79242;BME280;68670;48.720;9.118;2023-08-31T01:45:30;96411.75;;;11.72;97.42
79242;BME280;68670;48.720;9.118;2023-08-31T01:48:03;96427.38;;;11.66;97.69
79242;BME280;68670;48.720;9.118;2023-08-31T01:50:29;96430.97;;;11.72;97.88
79242;BME280;68670;48.720;9.118;2023-08-31T01:52:57;96426.00;;;11.64;98.19
79242;BME280;68670;48.720;9.118;2023-08-31T01:55:34;96437.47;;;11.61;98.85
79242;BME280;68670;48.720;9.118;2023-08-31T01:57:59;96439.19;;;11.67;98.71
79242;BME280;68670;48.720;9.118;2023-08-31T02:00:25;96430.44;;;11.75;98.34
79242;BME280;68670;48.720;9.118;2023-08-31T02:02:56;96421.47;;;11.80;97.95
79242;BME280;68670;48.720;9.118;2023-08-31T02:05:21;96427.13;;;11.73;98.50
79242;BME280;68670;48.720;9.118;2023-08-31T02:07:46;96428.22;;;11.72;98.35
79242;BME280;68670;48.720;9.118;2023-08-31T02:10:16;96426.75;;;11.59;99.29
79242;BME280;68670;48.720;9.118;2023-08-31T02:12:44;96426.56;;;11.66;98.73
79242;BME280;68670;48.720;9.118;2023-08-31T02:15:10;96424.41;;;11.73;98.34
79242;BME280;68670;48.720;9.118;2023-08-31T02:17:48;96421.66;;;11.73;98.50
79242;BME280;68670;48.720;9.118;2023-08-31T02:20:14;96430.91;;;11.62;98.91
79242;BME280;68670;48.720;9.118;2023-08-31T02:22:39;96427.59;;;11.60;99.16
79242;BME280;68670;48.720;9.118;2023-08-31T02:25:10;96426.25;;;11.62;98.99
79242;BME280;68670;48.720;9.118;2023-08-31T02:27:35;96428.72;;;11.64;98.76
79242;BME280;68670;48.720;9.118;2023-08-31T02:30:06;96433.16;;;11.70;98.56
79242;BME280;68670;48.720;9.118;2023-08-31T02:32:38;96431.81;;;11.72;98.81
79242;BME280;68670;48.720;9.118;2023-08-31T02:35:04;96443.84;;;11.66;99.42
79242;BME280;68670;48.720;9.118;2023-08-31T02:37:29;96430.97;;;11.72;99.56
79242;BME280;68670;48.720;9.118;2023-08-31T02:40:03;96439.78;;;11.74;99.66
79242;BME280;68670;48.720;9.118;2023-08-31T02:42:35;96447.03;;;11.85;98.85
79242;BME280;68670;48.720;9.118;2023-08-31T02:45:03;96454.78;;;11.93;98.22
79242;BME280;68670;48.720;9.118;2023-08-31T02:47:34;96455.41;;;12.00;98.02
79242;BME280;68670;48.720;9.118;2023-08-31T02:49:59;96453.66;;;11.89;98.82
79242;BME280;68670;48.720;9.118;2023-08-31T02:52:25;96451.19;;;11.88;98.80
79242;BME280;68670;48.720;9.118;2023-08-31T02:54:59;96446.59;;;11.98;98.19
79242;BME280;68670;48.720;9.118;2023-08-31T02:57:27;96450.91;;;11.89;98.54
79242;BME280;68670;48.720;9.118;2023-08-31T02:59:52;96453.03;;;11.82;99.30
79242;BME280;68670;48.720;9.118;2023-08-31T03:02:20;96445.16;;;11.91;98.56
79242;BME280;68670;48.720;9.118;2023-08-31T03:04:51;96446.81;;;11.92;98.30
79242;BME280;68670;48.720;9.118;2023-08-31T03:07:20;96447.03;;;11.85;98.53
79242;BME280;68670;48.720;9.118;2023-08-31T03:09:48;96442.06;;;11.82;98.69
79242;BME280;68670;48.720;9.118;2023-08-31T03:12:20;96454.19;;;11.86;98.41
79242;BME280;68670;48.720;9.118;2023-08-31T03:14:45;96458.78;;;11.81;98.40
79242;BME280;68670;48.720;9.118;2023-08-31T03:17:10;96466.50;;;11.84;98.51
79242;BME280;68670;48.720;9.118;2023-08-31T03:19:44;96463.38;;;11.75;98.76
79242;BME280;68670;48.720;9.118;2023-08-31T03:22:09;96468.38;;;11.78;98.57
79242;BME280;68670;48.720;9.118;2023-08-31T03:24:34;96457.31;;;11.73;98.75
79242;BME280;68670;48.720;9.118;2023-08-31T03:27:05;96458.66;;;11.70;98.69
79242;BME280;68670;48.720;9.118;2023-08-31T03:29:36;96457.31;;;11.68;98.42
79242;BME280;68670;48.720;9.118;2023-08-31T03:32:04;96460.00;;;11.63;98.83
79242;BME280;68670;48.720;9.118;2023-08-31T03:34:30;96464.53;;;11.52;99.05
79242;BME280;68670;48.720;9.118;2023-08-31T03:36:57;96456.06;;;11.54;98.59
79242;BME280;68670;48.720;9.118;2023-08-31T03:39:23;96455.94;;;11.43;99.39
79242;BME280;68670;48.720;9.118;2023-08-31T03:41:54;96455.44;;;11.47;99.37
79242;BME280;68670;48.720;9.118;2023-08-31T03:44:21;96471.81;;;11.36;100.00
79242;BME280;68670;48.720;9.118;2023-08-31T03:46:49;96472.66;;;11.42;99.57
79242;BME280;68670;48.720;9.118;2023-08-31T03:49:22;96468.84;;;11.43;99.60
79242;BME280;68670;48.720;9.118;2023-08-31T03:51:47;96472.41;;;11.43;99.42
79242;BME280;68670;48.720;9.118;2023-08-31T03:54:12;96469.72;;;11.49;98.93
79242;BME280;68670;48.720;9.118;2023-08-31T03:56:43;96478.50;;;11.51;98.59
79242;BME280;68670;48.720;9.118;2023-08-31T03:59:12;96492.13;;;11.40;98.93
79242;BME280;68670;48.720;9.118;2023-08-31T04:01:39;96485.53;;;11.41;98.96
79242;BME280;68670;48.720;9.118;2023-08-31T04:04:05;96495.38;;;11.37;99.18
79242;BME280;68670;48.720;9.118;2023-08-31T04:06:36;96489.63;;;11.39;98.94
79242;BME280;68670;48.720;9.118;2023-08-31T04:09:06;96484.41;;;11.37;98.89
79242;BME280;68670;48.720;9.118;2023-08-31T04:11:36;96486.59;;;11.35;98.77
79242;BME280;68670;48.720;9.118;2023-08-31T04:14:01;96488.78;;;11.33;99.47
79242;BME280;68670;48.720;9.118;2023-08-31T04:16:34;96486.03;;;11.33;99.03
79242;BME280;68670;48.720;9.118;2023-08-31T04:19:01;96488.97;;;11.27;99.88
79242;BME280;68670;48.720;9.118;2023-08-31T04:21:27;96482.97;;;11.30;99.35
79242;BME280;68670;48.720;9.118;2023-08-31T04:23:56;96486.72;;;11.24;98.87
79242;BME280;68670;48.720;9.118;2023-08-31T04:26:25;96491.97;;;11.25;99.03
79242;BME280;68670;48.720;9.118;2023-08-31T04:28:50;96496.63;;;11.25;98.61
79242;BME280;68670;48.720;9.118;2023-08-31T04:31:24;96497.91;;;11.17;99.25
79242;BME280;68670;48.720;9.118;2023-08-31T04:33:52;96495.09;;;11.12;99.67
79242;BME280;68670;48.720;9.118;2023-08-31T04:36:23;96495.91;;;11.13;99.68
79242;BME280;68670;48.720;9.118;2023-08-31T04:38:52;96504.47;;;11.16;98.99
79242;BME280;68670;48.720;9.118;2023-08-31T04:41:18;96507.47;;;11.15;99.10
79242;BME280;68670;48.720;9.118;2023-08-31T04:43:49;96508.78;;;11.12;99.16
79242;BME280;68670;48.720;9.118;2023-08-31T04:46:21;96513.38;;;11.06;99.68
79242;BME280;68670;48.720;9.118;2023-08-31T04:48:48;96504.88;;;11.03;99.87
79242;BME280;68670;48.720;9.118;2023-08-31T04:51:34;96508.06;;;10.95;100.00
79242;BME280;68670;48.720;9.118;2023-08-31T04:53:59;96518.03;;;11.06;99.78
79242;BME280;68670;48.720;9.118;2023-08-31T04:56:36;96514.47;;;11.05;99.09
79242;BME280;68670;48.720;9.118;2023-08-31T04:59:09;96521.25;;;10.98;99.18
79242;BME280;68670;48.720;9.118;2023-08-31T05:01:36;96516.34;;;11.00;99.76
79242;BME280;68670;48.720;9.118;2023-08-31T05:04:14;96522.00;;;10.93;100.00
79242;BME280;68670;48.720;9.118;2023-08-31T05:06:42;96527.75;;;10.92;99.97
79242;BME280;68670;48.720;9.118;2023-08-31T05:09:07;96532.28;;;11.03;99.09
79242;BME280;68670;48.720;9.118;2023-08-31T05:11:41;96535.88;;;11.08;98.83
79242;BME280;68670;48.720;9.118;2023-08-31T05:14:12;96539.97;;;11.06;99.41
79242;BME280;68670;48.720;9.118;2023-08-31T05:16:39;96532.31;;;11.08;98.73
79242;BME280;68670;48.720;9.118;2023-08-31T05:19:07;96533.41;;;11.07;99.17
79242;BME280;68670;48.720;9.118;2023-08-31T05:21:32;96537.75;;;11.03;99.67
79242;BME280;68670;48.720;9.118;2023-08-31T05:24:01;96550.38;;;11.04;99.73
79242;BME280;68670;48.720;9.118;2023-08-31T05:26:31;96541.75;;;11.17;98.78
79242;BME280;68670;48.720;9.118;2023-08-31T05:28:56;96556.41;;;11.28;98.38
79242;BME280;68670;48.720;9.118;2023-08-31T05:31:26;96551.13;;;11.21;99.03
79242;BME280;68670;48.720;9.118;2023-08-31T05:33:54;96547.22;;;11.17;99.41
79242;BME280;68670;48.720;9.118;2023-08-31T05:36:19;96544.63;;;11.27;98.62
79242;BME280;68670;48.720;9.118;2023-08-31T05:38:47;96545.19;;;11.29;98.58
79242;BME280;68670;48.720;9.118;2023-08-31T05:41:15;96549.41;;;11.37;98.54
79242;BME280;68670;48.720;9.118;2023-08-31T05:43:41;96562.91;;;11.43;98.51
79242;BME280;68670;48.720;9.118;2023-08-31T05:46:12;96562.84;;;11.38;98.89
79242;BME280;68670;48.720;9.118;2023-08-31T05:48:38;96564.50;;;11.39;99.03
79242;BME280;68670;48.720;9.118;2023-08-31T05:51:03;96572.84;;;11.50;98.87
79242;BME280;68670;48.720;9.118;2023-08-31T05:53:30;96577.25;;;11.51;98.58
79242;BME280;68670;48.720;9.118;2023-08-31T05:56:01;96578.25;;;11.44;99.36
79242;BME280;68670;48.720;9.118;2023-08-31T05:58:33;96578.78;;;11.41;99.99
79242;BME280;68670;48.720;9.118;2023-08-31T06:01:11;96573.41;;;11.52;99.10
79242;BME280;68670;48.720;9.118;2023-08-31T06:03:39;96578.19;;;11.61;98.91
79242;BME280;68670;48.720;9.118;2023-08-31T06:06:07;96584.84;;;11.65;98.32
79242;BME280;68670;48.720;9.118;2023-08-31T06:08:35;96575.25;;;11.68;98.91
79242;BME280;68670;48.720;9.118;2023-08-31T06:11:00;96576.84;;;11.64;99.25
79242;BME280;68670;48.720;9.118;2023-08-31T06:13:28;96582.94;;;11.71;99.20
79242;BME280;68670;48.720;9.118;2023-08-31T06:16:05;96582.78;;;11.77;98.46
79242;BME280;68670;48.720;9.118;2023-08-31T06:18:36;96580.47;;;11.91;97.95
79242;BME280;68670;48.720;9.118;2023-08-31T06:21:02;96588.97;;;11.90;97.87
79242;BME280;68670;48.720;9.118;2023-08-31T06:23:32;96585.38;;;11.89;97.61
79242;BME280;68670;48.720;9.118;2023-08-31T06:25:58;96596.34;;;11.89;97.55
79242;BME280;68670;48.720;9.118;2023-08-31T06:28:23;96590.66;;;11.96;97.46
79242;BME280;68670;48.720;9.118;2023-08-31T06:31:03;96596.03;;;12.13;96.31
79242;BME280;68670;48.720;9.118;2023-08-31T06:33:29;96594.88;;;12.08;96.96
79242;BME280;68670;48.720;9.118;2023-08-31T06:35:54;96597.75;;;12.19;96.16
79242;BME280;68670;48.720;9.118;2023-08-31T06:38:26;96599.28;;;12.09;97.15
79242;BME280;68670;48.720;9.118;2023-08-31T06:40:54;96600.59;;;12.29;96.37
79242;BME280;68670;48.720;9.118;2023-08-31T06:43:36;96600.34;;;12.35;95.26
79242;BME280;68670;48.720;9.118;2023-08-31T06:46:01;96602.38;;;12.45;94.33
79242;BME280;68670;48.720;9.118;2023-08-31T06:48:26;96600.78;;;12.54;94.28
79242;BME280;68670;48.720;9.118;2023-08-31T06:51:01;96607.16;;;12.60;94.21
79242;BME280;68670;48.720;9.118;2023-08-31T06:53:29;96612.97;;;12.68;92.46
79242;BME280;68670;48.720;9.118;2023-08-31T06:55:54;96628.47;;;12.79;92.89
79242;BME280;68670;48.720;9.118;2023-08-31T06:58:36;96619.78;;;12.93;92.78
79242;BME280;68670;48.720;9.118;2023-08-31T07:01:07;96615.72;;;13.05;92.83
79242;BME280;68670;48.720;9.118;2023-08-31T07:03:35;96614.44;;;13.18;94.04
79242;BME280;68670;48.720;9.118;2023-08-31T07:06:01;96622.78;;;13.33;87.37
79242;BME280;68670;48.720;9.118;2023-08-31T07:08:27;96619.53;;;13.47;87.12
79242;BME280;68670;48.720;9.118;2023-08-31T07:10:53;96627.31;;;13.60;83.52
79242;BME280;68670;48.720;9.118;2023-08-31T07:13:19;96619.88;;;13.65;85.40
79242;BME280;68670;48.720;9.118;2023-08-31T07:15:47;96619.88;;;13.65;84.44
79242;BME280;68670;48.720;9.118;2023-08-31T07:18:14;96622.09;;;13.68;84.48
79242;BME280;68670;48.720;9.118;2023-08-31T07:20:39;96626.81;;;13.73;84.44
79242;BME280;68670;48.720;9.118;2023-08-31T07:23:08;96637.28;;;13.76;81.76
79242;BME280;68670;48.720;9.118;2023-08-31T07:25:35;96632.91;;;13.80;83.58
79242;BME280;68670;48.720;9.118;2023-08-31T07:28:01;96629.03;;;13.81;81.27
79242;BME280;68670;48.720;9.118;2023-08-31T07:30:29;96634.88;;;13.95;84.50
79242;BME280;68670;48.720;9.118;2023-08-31T07:32:55;96647.81;;;13.99;80.67
79242;BME280;68670;48.720;9.118;2023-08-31T07:35:20;96643.47;;;14.13;78.94
79242;BME280;68670;48.720;9.118;2023-08-31T07:37:51;96651.19;;;14.32;77.64
79242;BME280;68670;48.720;9.118;2023-08-31T07:40:17;96651.81;;;14.44;75.84
79242;BME280;68670;48.720;9.118;2023-08-31T07:42:42;96641.34;;;14.56;73.27
79242;BME280;68670;48.720;9.118;2023-08-31T07:45:15;96661.19;;;14.68;73.08
79242;BME280;68670;48.720;9.118;2023-08-31T07:47:45;96652.66;;;14.85;72.00
79242;BME280;68670;48.720;9.118;2023-08-31T07:50:12;96652.38;;;15.07;70.20
79242;BME280;68670;48.720;9.118;2023-08-31T07:52:48;96642.81;;;15.79;64.88
79242;BME280;68670;48.720;9.118;2023-08-31T07:55:16;96641.69;;;16.78;62.82
79242;BME280;68670;48.720;9.118;2023-08-31T07:57:44;96651.59;;;17.95;59.56
79242;BME280;68670;48.720;9.118;2023-08-31T08:00:15;96661.41;;;18.87;58.60
79242;BME280;68670;48.720;9.118;2023-08-31T08:02:41;96647.94;;;18.61;53.92
79242;BME280;68670;48.720;9.118;2023-08-31T08:05:08;96646.53;;;19.15;53.73
79242;BME280;68670;48.720;9.118;2023-08-31T08:07:40;96640.84;;;19.53;53.14
79242;BME280;68670;48.720;9.118;2023-08-31T08:10:08;96643.84;;;18.91;50.95
79242;BME280;68670;48.720;9.118;2023-08-31T08:12:43;96645.56;;;19.06;53.10
79242;BME280;68670;48.720;9.118;2023-08-31T08:15:12;96650.06;;;19.34;54.12
79242;BME280;68670;48.720;9.118;2023-08-31T08:17:42;96651.06;;;18.92;51.39
79242;BME280;68670;48.720;9.118;2023-08-31T08:20:12;96666.25;;;18.62;54.33
79242;BME280;68670;48.720;9.118;2023-08-31T08:22:49;96658.84;;;18.34;53.71
79242;BME280;68670;48.720;9.118;2023-08-31T08:25:22;96663.75;;;17.99;53.54
79242;BME280;68670;48.720;9.118;2023-08-31T08:27:50;96662.25;;;18.50;52.32
79242;BME280;68670;48.720;9.118;2023-08-31T08:30:16;96675.13;;;19.16;50.45
79242;BME280;68670;48.720;9.118;2023-08-31T08:32:44;96663.06;;;19.20;50.36
79242;BME280;68670;48.720;9.118;2023-08-31T08:35:10;96667.84;;;19.01;50.04
79242;BME280;68670;48.720;9.118;2023-08-31T08:37:35;96672.94;;;18.56;49.06
79242;BME280;68670;48.720;9.118;2023-08-31T08:40:06;96668.94;;;17.82;49.40
79242;BME280;68670;48.720;9.118;2023-08-31T08:42:32;96667.41;;;17.71;51.29
79242;BME280;68670;48.720;9.118;2023-08-31T08:44:58;96662.59;;;17.82;52.10
79242;BME280;68670;48.720;9.118;2023-08-31T08:47:31;96678.09;;;17.54;50.14
79242;BME280;68670;48.720;9.118;2023-08-31T08:50:00;96678.50;;;17.13;50.79
79242;BME280;68670;48.720;9.118;2023-08-31T08:52:26;96681.97;;;16.90;53.43
79242;BME280;68670;48.720;9.118;2023-08-31T08:55:02;96690.00;;;16.47;53.29
79242;BME280;68670;48.720;9.118;2023-08-31T08:57:31;96684.28;;;16.28;53.11
79242;BME280;68670;48.720;9.118;2023-08-31T09:00:04;96684.56;;;16.27;53.67
79242;BME280;68670;48.720;9.118;2023-08-31T09:02:30;96683.97;;;16.40;54.85
79242;BME280;68670;48.720;9.118;2023-08-31T09:05:00;96686.84;;;16.20;54.52
79242;BME280;68670;48.720;9.118;2023-08-31T09:10:36;96695.97;;;16.15;54.90
79242;BME280;68670;48.720;9.118;2023-08-31T09:13:09;96696.03;;;16.05;55.93
79242;BME280;68670;48.720;9.118;2023-08-31T09:15:49;96694.63;;;16.07;54.65
79242;BME280;68670;48.720;9.118;2023-08-31T09:18:28;96695.81;;;16.45;54.97
79242;BME280;68670;48.720;9.118;2023-08-31T09:20:57;96704.06;;;16.56;52.80
79242;BME280;68670;48.720;9.118;2023-08-31T09:23:23;96694.47;;;16.38;53.85
79242;BME280;68670;48.720;9.118;2023-08-31T09:25:50;96700.00;;;16.38;55.96
79242;BME280;68670;48.720;9.118;2023-08-31T09:28:24;96703.00;;;17.25;52.45
79242;BME280;68670;48.720;9.118;2023-08-31T09:30:52;96710.94;;;17.02;52.75
79242;BME280;68670;48.720;9.118;2023-08-31T09:33:19;96707.06;;;17.90;49.79
79242;BME280;68670;48.720;9.118;2023-08-31T09:36:00;96704.81;;;17.39;49.09
79242;BME280;68670;48.720;9.118;2023-08-31T09:38:46;96696.63;;;18.30;47.57
79242;BME280;68670;48.720;9.118;2023-08-31T09:41:12;96709.97;;;19.40;41.45
79242;BME280;68670;48.720;9.118;2023-08-31T09:43:47;96699.19;;;20.12;39.18
79242;BME280;68670;48.720;9.118;2023-08-31T09:46:14;96700.59;;;20.24;39.92
79242;BME280;68670;48.720;9.118;2023-08-31T09:48:48;96709.88;;;20.33;37.95
79242;BME280;68670;48.720;9.118;2023-08-31T09:51:19;96698.53;;;20.70;38.84
79242;BME280;68670;48.720;9.118;2023-08-31T09:53:55;96697.44;;;20.80;37.54
79242;BME280;68670;48.720;9.118;2023-08-31T09:56:30;96700.38;;;21.11;37.35
79242;BME280;68670;48.720;9.118;2023-08-31T09:58:57;96710.53;;;21.29;36.63
79242;BME280;68670;48.720;9.118;2023-08-31T10:01:22;96694.91;;;21.51;36.26
79242;BME280;68670;48.720;9.118;2023-08-31T10:03:57;96707.00;;;21.68;35.26
79242;BME280;68670;48.720;9.118;2023-08-31T10:06:27;96694.44;;;21.26;36.09
79242;BME280;68670;48.720;9.118;2023-08-31T10:08:53;96706.91;;;21.51;35.37
79242;BME280;68670;48.720;9.118;2023-08-31T10:11:38;96702.06;;;21.96;35.63
79242;BME280;68670;48.720;9.118;2023-08-31T10:14:07;96699.00;;;22.46;35.16
79242;BME280;68670;48.720;9.118;2023-08-31T10:16:35;96699.19;;;22.01;35.08
79242;BME280;68670;48.720;9.118;2023-08-31T10:19:02;96696.31;;;22.24;34.02
79242;BME280;68670;48.720;9.118;2023-08-31T10:21:33;96709.50;;;21.25;37.24
79242;BME280;68670;48.720;9.118;2023-08-31T10:23:58;96711.72;;;20.24;37.97
79242;BME280;68670;48.720;9.118;2023-08-31T10:26:33;96720.38;;;19.49;40.41
79242;BME280;68670;48.720;9.118;2023-08-31T10:29:01;96721.34;;;19.06;40.72
79242;BME280;68670;48.720;9.118;2023-08-31T10:31:47;96717.91;;;18.53;42.06
79242;BME280;68670;48.720;9.118;2023-08-31T10:34:15;96717.91;;;18.53;42.42
79242;BME280;68670;48.720;9.118;2023-08-31T10:36:50;96721.88;;;18.04;43.63
79242;BME280;68670;48.720;9.118;2023-08-31T10:39:18;96732.13;;;17.80;43.63
79242;BME280;68670;48.720;9.118;2023-08-31T10:41:56;96726.88;;;17.50;45.27
79242;BME280;68670;48.720;9.118;2023-08-31T10:46:48;96723.66;;;17.37;45.88
79242;BME280;68670;48.720;9.118;2023-08-31T10:49:17;96727.81;;;17.93;44.82
79242;BME280;68670;48.720;9.118;2023-08-31T10:51:53;96718.41;;;18.60;43.27
79242;BME280;68670;48.720;9.118;2023-08-31T10:54:42;96720.09;;;18.37;44.47
79242;BME280;68670;48.720;9.118;2023-08-31T10:57:07;96716.59;;;18.08;45.12
79242;BME280;68670;48.720;9.118;2023-08-31T10:59:54;96712.56;;;17.95;45.08
79242;BME280;68670;48.720;9.118;2023-08-31T11:05:16;96718.00;;;18.05;44.52
79242;BME280;68670;48.720;9.118;2023-08-31T11:07:43;96712.09;;;18.12;44.92
79242;BME280;68670;48.720;9.118;2023-08-31T11:10:24;96711.69;;;18.66;43.85
79242;BME280;68670;48.720;9.118;2023-08-31T11:12:58;96712.13;;;18.31;45.27
79242;BME280;68670;48.720;9.118;2023-08-31T11:15:24;96711.00;;;18.32;42.89
79242;BME280;68670;48.720;9.118;2023-08-31T11:18:02;96717.72;;;18.50;43.38
79242;BME280;68670;48.720;9.118;2023-08-31T11:20:30;96710.88;;;19.36;42.51
79242;BME280;68670;48.720;9.118;2023-08-31T11:23:03;96704.00;;;20.21;42.35
79242;BME280;68670;48.720;9.118;2023-08-31T11:25:33;96698.06;;;20.13;40.79
79242;BME280;68670;48.720;9.118;2023-08-31T11:28:07;96695.47;;;20.03;40.55
79242;BME280;68670;48.720;9.118;2023-08-31T11:30:33;96689.50;;;20.24;41.47
79242;BME280;68670;48.720;9.118;2023-08-31T11:33:06;96702.97;;;19.89;40.97
79242;BME280;68670;48.720;9.118;2023-08-31T11:35:42;96704.84;;;19.48;40.71
79242;BME280;68670;48.720;9.118;2023-08-31T11:38:12;96700.03;;;19.53;41.30
79242;BME280;68670;48.720;9.118;2023-08-31T11:40:37;96700.41;;;20.34;40.16
79242;BME280;68670;48.720;9.118;2023-08-31T11:43:08;96692.00;;;21.56;39.19
79242;BME280;68670;48.720;9.118;2023-08-31T11:45:34;96691.91;;;21.38;38.83
79242;BME280;68670;48.720;9.118;2023-08-31T11:48:05;96690.72;;;21.17;38.36
79242;BME280;68670;48.720;9.118;2023-08-31T11:50:42;96688.63;;;20.64;38.49
79242;BME280;68670;48.720;9.118;2023-08-31T11:53:12;96687.66;;;20.47;39.63
79242;BME280;68670;48.720;9.118;2023-08-31T11:55:52;96687.63;;;20.33;40.02
79242;BME280;68670;48.720;9.118;2023-08-31T11:58:20;96685.56;;;20.52;39.39
79242;BME280;68670;48.720;9.118;2023-08-31T12:00:54;96684.16;;;20.13;40.47
79242;BME280;68670;48.720;9.118;2023-08-31T12:03:19;96679.91;;;20.02;40.43
79242;BME280;68670;48.720;9.118;2023-08-31T12:05:46;96687.84;;;19.95;39.62
79242;BME280;68670;48.720;9.118;2023-08-31T12:08:17;96685.56;;;19.84;40.24
79242;BME280;68670;48.720;9.118;2023-08-31T12:10:50;96674.84;;;20.59;38.18
79242;BME280;68670;48.720;9.118;2023-08-31T12:13:21;96663.94;;;20.35;40.93
79242;BME280;68670;48.720;9.118;2023-08-31T12:15:52;96683.41;;;20.22;39.81
79242;BME280;68670;48.720;9.118;2023-08-31T12:18:45;96679.91;;;20.16;39.77
79242;BME280;68670;48.720;9.118;2023-08-31T12:21:11;96686.97;;;19.54;40.94
79242;BME280;68670;48.720;9.118;2023-08-31T12:23:44;96691.72;;;19.02;41.78
79242;BME280;68670;48.720;9.118;2023-08-31T12:26:12;96698.31;;;18.87;42.40
79242;BME280;68670;48.720;9.118;2023-08-31T12:28:40;96690.69;;;18.79;41.66
79242;BME280;68670;48.720;9.118;2023-08-31T12:31:08;96681.09;;;18.71;42.49
79242;BME280;68670;48.720;9.118;2023-08-31T12:33:37;96678.31;;;18.71;43.47
79242;BME280;68670;48.720;9.118;2023-08-31T12:36:02;96677.44;;;18.52;44.67
79242;BME280;68670;48.720;9.118;2023-08-31T12:38:30;96680.53;;;18.51;44.72
79242;BME280;68670;48.720;9.118;2023-08-31T12:40:56;96671.41;;;18.50;43.47
79242;BME280;68670;48.720;9.118;2023-08-31T12:43:21;96668.41;;;18.23;43.88
79242;BME280;68670;48.720;9.118;2023-08-31T12:45:47;96671.34;;;18.12;45.04
79242;BME280;68670;48.720;9.118;2023-08-31T12:48:18;96673.53;;;18.16;46.00
79242;BME280;68670;48.720;9.118;2023-08-31T12:50:43;96672.72;;;18.15;46.40
79242;BME280;68670;48.720;9.118;2023-08-31T12:53:15;96666.78;;;18.22;46.83
79242;BME280;68670;48.720;9.118;2023-08-31T12:55:43;96686.41;;;18.25;47.61
79242;BME280;68670;48.720;9.118;2023-08-31T12:58:11;96678.00;;;18.11;46.49
79242;BME280;68670;48.720;9.118;2023-08-31T13:00:36;96682.38;;;18.18;47.51
79242;BME280;68670;48.720;9.118;2023-08-31T13:03:04;96676.94;;;18.07;48.49
79242;BME280;68670;48.720;9.118;2023-08-31T13:05:32;96685.28;;;18.26;46.42
79242;BME280;68670;48.720;9.118;2023-08-31T13:08:04;96687.28;;;18.21;46.15
79242;BME280;68670;48.720;9.118;2023-08-31T13:10:30;96691.66;;;18.27;47.10
79242;BME280;68670;48.720;9.118;2023-08-31T13:12:56;96683.63;;;18.25;48.02
79242;BME280;68670;48.720;9.118;2023-08-31T13:15:31;96692.41;;;18.13;48.33
79242;BME280;68670;48.720;9.118;2023-08-31T13:17:57;96694.50;;;18.22;48.78
79242;BME280;68670;48.720;9.118;2023-08-31T13:20:22;96685.00;;;18.28;51.30
79242;BME280;68670;48.720;9.118;2023-08-31T13:22:47;96690.84;;;19.20;48.67
79242;BME280;68670;48.720;9.118;2023-08-31T13:25:19;96674.97;;;20.27;45.98
79242;BME280;68670;48.720;9.118;2023-08-31T13:27:44;96673.25;;;21.48;42.01
79242;BME280;68670;48.720;9.118;2023-08-31T13:30:12;96667.88;;;22.13;40.81